Monday, August 29, 2016
23:33 UTC
  |  Log In   |  Register Free
Airport Search:

Hampton Roads Executive Airport
(KPVG)

Hampton Roads Executive Airport Diagram
No Airport Diagram Available

FAA data valid effective Jul 21 2016 - Sep 15 2016 (unless otherwise noted).

 
 
 
 
 
 
 
 
 
 
 
 
 
 
Current Aviation Weather for KPVG

Weather Summary


The most recent METAR observation for PVG was updated at: 12:55 UTC
METAR for PVG is not available. Closest METAR is for
METAR

METAR KPVG 292315Z 09005KT 10SM CLR 27/19 A3011 RMK AO1

METAR KPVG 292255Z 06005KT 10SM CLR 28/19 A3011 RMK AO1

METAR KPVG 292235Z 08008KT 10SM CLR 28/19 A3012 RMK AO1

METAR KPVG 292215Z 06007KT 10SM CLR 28/19 A3012 RMK AO1

METAR KPVG 292155Z 05007KT 10SM CLR 28/19 A3011 RMK AO1

METAR KPVG 292135Z 06009KT 10SM CLR 30/20 A3011 RMK AO1

METAR KPVG 292115Z 05008KT 10SM CLR 31/19 A3011 RMK AO1

METAR KPVG 292055Z 08009KT 10SM CLR 31/19 A3010 RMK AO1 57014

METAR KPVG 292035Z 07007KT 10SM CLR 31/19 A3009 RMK AO1

METAR KAKQ 292254Z VRB03KT 10SM CLR 29/16 A3008 RMK AO2 SLP186 T02940156 TSNO

METAR KCPK 292315Z 05005KT 10SM CLR 27/18 A3009 RMK AO2 T02650175

METAR KECG 292254Z 05008KT 10SM CLR 26/20 A3009 RMK AO2 SLP187 T02560200

TAF for PVG is not available.
TAF

KNGU - TAF KNGU 2923/3023 07006KT 9999 FEW040 SCT130 BKN260 QNH3006INS

KNGU - FM301200 04009KT 9999 SCT040 SCT150 BKN260 QNH3003INS

KNGU - FM301800 05012KT 9999 FEW040 SCT150 SCT260 QNH3000INS T23/3009Z T30/3019Z FN20060 =

KORF - TAF KORF 292329Z 3000/3024 07007KT P6SM SCT120

KORF - FM301200 04011KT P6SM SCT120 =

KLFI - TAF KLFI 291707Z 2917/3023 03009KT 9999 SCT020 BKN200 QNH3005INS

KLFI - BECMG 3001/3002 VRB06KT 9999 SCT030 QNH3000INS WND 03009KT AFT 3010 TX33/2918Z TN22/3010Z =

KNTU - TAF KNTU 2923/3023 06006KT 9999 SCT140 BKN250 QNH3005INS

KNTU - FM301200 04009KT 9999 SCT040 BKN140 BKN250 QNH3001INS

KNTU - FM301600 05012KT 9999 BKN040 BKN150 BKN260 QNH2998INS T23/3010Z T30/3019Z FN20051 =

KPHF - TAF KPHF 292329Z 3000/3024 VRB03KT P6SM SCT250

KPHF - FM301300 04008KT P6SM SCT120 =

KFAF - TAF KFAF 291802Z 2918/3024 03006KT 9999 SCT020 BKN200 QNH3007INS

KFAF - BECMG 3001/3002 VRB06KT 9999 SCT030 QNH3001INS WND 03006KT AFT 3010 TX34/2918Z TN22/3010Z LAST NO AMDS AFT 3003 NEXT 3010 =

KECG - TAF KECG 292329Z 3000/3024 05007KT P6SM SCT120

KECG - FM301500 05012G20KT P6SM BKN035 =

GlobalAir.com is loading additional information.
 Current Weather at PVG
82.0 F° (28.0 C°)

Northeast winds at 8.1 mph
Pressure:
30.11 in
Humidity:
58%
Wind:
Northeast at 8.1 mph
Dew Point:
66.2 F° (19.0 C°)
Visibility:
10.00 mi
PVG NOAA Radar




Find All Airport Services Find A Hotel Find A Rental Car Find A Golf Course Find A Restaurant $100 Hamburger



Airport Weather Forecast for KPVG

Translated METAR for KPVG (2315 UTC)
METAR:
KPVG 292315Z Hampton Roads Executive, Norfolk, VA (KPVG). Aug 29, 2315Z. Wind from 090° at 5 knots, 10 statute miles visibility, Clear Skies, Temperature 27°C, Dewpoint 19°C, Altimeter is 30.11. Remarks: automated station without precipitation discriminator
Conditions at:
KPVG (Hampton Roads Executive, VA) observed 2315 UTC 29 August 2016
Temperature:
82.0 F° (28.0 C°)
Dewpoint:
not reported - refer to area weather report
Pressure:
30.11 Hg
Winds:
not reported
Visibility:
10.00
Ceiling:
at least 12,000 feet AGL
Clouds:
not reported - refer to area weather report
Remarks:

Translated TAF for TAF for PVG is not available. Refer to local area forecast.
FBO's on the Field
FBO Company Facility Photos Services Transportation Aviation Fuel Prices: Prices include tax
Catering Weather Repair Courtesy Rental Type 100LL JetA JetA+ MOGAS 8087
 
Hampton Roads Executive Airport

Currently rated 5 by 1 person
FS:Shell
Last Updated: Aug-12
Login to update fuel prices
SS:
Contact Hampton Roads Executive AirportMore FBO Information
 
Add another FBO Facility Photos Catering Weather Repair Courtesy Rental Type 100LL JetA JetA+ MOGAS 8087
Services Transportation Aviation Fuel Prices: Prices include tax


model-print
model-print
model-print
model-print